Time;durP1;ratioP1;P1;durP2;ratioP2;P2;SDS_P1;SDS_P2;PMS_P1;PMS_P2;Temp;Humidity;BMP_temperature;BMP_pressure;BME280_temperature;BME280_humidity;BME280_pressure;Samples;Min_cycle;Max_cycle;Signal;HPM_P1;HPM_P2
2022/01/04 00:01:47;;;;;;;1.23;0.50;;;;;;;;;;5117004;28;20267;-70
2022/01/04 00:04:13;;;;;;;2.67;0.77;;;;;;;;;;5118590;28;20264;-68
2022/01/04 00:06:40;;;;;;;2.35;0.75;;;;;;;;;;5115032;28;20240;-68
2022/01/04 00:09:07;;;;;;;0.60;0.60;;;;;;;;;;5123491;28;20256;-67
2022/01/04 00:11:56;;;;;;;1.77;0.77;;;;;;;;;;5123439;28;20195;-67
2022/01/04 00:14:22;;;;;;;1.00;0.50;;;;;;;;;;5124226;28;20374;-67
2022/01/04 00:16:50;;;;;;;2.30;0.60;;;;;;;;;;5123428;28;20191;-67
2022/01/04 00:19:17;;;;;;;1.60;0.82;;;;;;;;;;5122687;28;20228;-67
2022/01/04 00:21:43;;;;;;;0.60;0.60;;;;;;;;;;5123721;28;20501;-67
2022/01/04 00:24:10;;;;;;;0.73;0.70;;;;;;;;;;5123542;28;20191;-67
2022/01/04 00:26:38;;;;;;;0.50;0.50;;;;;;;;;;5123198;28;20488;-67
2022/01/04 00:29:04;;;;;;;1.50;0.52;;;;;;;;;;5123355;28;20207;-67
2022/01/04 00:31:31;;;;;;;2.80;0.68;;;;;;;;;;5123932;28;20499;-67
2022/01/04 00:33:57;;;;;;;1.08;0.60;;;;;;;;;;5123451;28;20199;-67
2022/01/04 00:36:25;;;;;;;0.60;0.60;;;;;;;;;;5123343;28;20219;-67
2022/01/04 00:38:51;;;;;;;1.60;0.50;;;;;;;;;;5123283;28;20187;-67
2022/01/04 00:41:18;;;;;;;0.70;0.70;;;;;;;;;;5123294;28;20384;-67
2022/01/04 00:43:45;;;;;;;0.75;0.70;;;;;;;;;;5123147;28;20195;-67
2022/01/04 00:46:16;;;;;;;0.85;0.60;;;;;;;;;;5123022;28;20308;-67
2022/01/04 00:51:26;;;;;;;0.90;0.60;;;;;;;;;;5123375;28;20217;-65
2022/01/04 00:53:53;;;;;;;1.88;0.60;;;;;;;;;;5123237;28;20459;-67
2022/01/04 00:56:19;;;;;;;2.42;0.68;;;;;;;;;;5122896;28;20195;-67
2022/01/04 00:58:47;;;;;;;1.08;0.65;;;;;;;;;;5122933;28;20199;-66
2022/01/04 01:01:13;;;;;;;0.52;0.52;;;;;;;;;;5123296;28;20195;-65
2022/01/04 01:03:41;;;;;;;0.55;0.52;;;;;;;;;;5123106;28;20202;-65
2022/01/04 01:06:09;;;;;;;2.40;0.70;;;;;;;;;;5122739;28;20199;-66
2022/01/04 01:08:35;;;;;;;1.23;0.80;;;;;;;;;;5123154;28;20191;-66
2022/01/04 01:11:04;;;;;;;0.70;0.70;;;;;;;;;;5122824;28;20233;-66
2022/01/04 01:13:30;;;;;;;0.40;0.40;;;;;;;;;;5122418;28;20387;-67
2022/01/04 01:15:58;;;;;;;0.63;0.60;;;;;;;;;;5122772;28;20391;-65
2022/01/04 01:18:25;;;;;;;0.82;0.60;;;;;;;;;;5122852;28;20191;-66
2022/01/04 01:20:51;;;;;;;0.55;0.55;;;;;;;;;;5123127;28;20198;-66
2022/01/04 01:23:18;;;;;;;1.42;0.60;;;;;;;;;;5122749;28;20487;-66
2022/01/04 01:25:44;;;;;;;0.70;0.70;;;;;;;;;;5122757;28;20195;-66
2022/01/04 01:28:11;;;;;;;0.80;0.80;;;;;;;;;;5122748;28;20187;-66
2022/01/04 01:30:41;;;;;;;2.58;0.60;;;;;;;;;;5122626;28;20226;-66
2022/01/04 01:33:09;;;;;;;0.90;0.50;;;;;;;;;;5123003;28;20494;-66
2022/01/04 01:35:35;;;;;;;0.70;0.70;;;;;;;;;;5122243;28;20211;-66
2022/01/04 01:38:02;;;;;;;0.60;0.60;;;;;;;;;;5122782;28;20202;-67
2022/01/04 01:40:28;;;;;;;1.90;0.52;;;;;;;;;;5122706;28;20228;-66
2022/01/04 01:42:55;;;;;;;1.75;0.90;;;;;;;;;;5122540;28;20205;-66
2022/01/04 01:45:23;;;;;;;1.33;1.00;;;;;;;;;;5122210;28;20557;-66
2022/01/04 01:47:50;;;;;;;1.08;0.70;;;;;;;;;;5121549;28;20195;-66
2022/01/04 01:50:18;;;;;;;0.80;0.80;;;;;;;;;;5121940;28;20241;-66
2022/01/04 01:52:46;;;;;;;0.90;0.90;;;;;;;;;;5122583;28;20195;-66
2022/01/04 01:55:13;;;;;;;0.98;0.68;;;;;;;;;;5121890;28;20195;-66
2022/01/04 01:57:40;;;;;;;0.80;0.80;;;;;;;;;;5122320;28;20439;-66
2022/01/04 02:00:08;;;;;;;0.93;0.90;;;;;;;;;;5122371;28;20487;-66
2022/01/04 02:02:34;;;;;;;3.40;0.70;;;;;;;;;;5122303;28;20195;-66
2022/01/04 02:05:01;;;;;;;1.40;0.77;;;;;;;;;;5122451;28;20202;-66
2022/01/04 02:07:30;;;;;;;1.50;0.77;;;;;;;;;;5122347;28;20195;-66
2022/01/04 02:10:03;;;;;;;0.85;0.85;;;;;;;;;;5122221;28;20248;-66
2022/01/04 02:12:30;;;;;;;1.00;0.90;;;;;;;;;;5122663;28;20184;-66
2022/01/04 02:14:56;;;;;;;0.80;0.80;;;;;;;;;;5121899;28;20248;-66
2022/01/04 02:17:23;;;;;;;0.90;0.90;;;;;;;;;;5122103;28;20195;-66
2022/01/04 02:19:51;;;;;;;1.05;0.80;;;;;;;;;;5102174;28;20219;-66
2022/01/04 02:22:17;;;;;;;1.20;1.10;;;;;;;;;;5101503;28;20263;-66
2022/01/04 02:24:44;;;;;;;1.95;0.90;;;;;;;;;;5104383;28;20194;-66
2022/01/04 02:27:11;;;;;;;1.35;0.90;;;;;;;;;;5125425;27;20395;-66
2022/01/04 02:29:37;;;;;;;0.90;0.90;;;;;;;;;;5125702;28;20214;-66
2022/01/04 02:32:04;;;;;;;1.52;0.90;;;;;;;;;;5126083;28;20395;-66
2022/01/04 02:34:31;;;;;;;0.88;0.88;;;;;;;;;;5126041;28;20210;-66
2022/01/04 02:36:58;;;;;;;1.95;0.80;;;;;;;;;;5125741;28;20499;-66
2022/01/04 02:39:25;;;;;;;0.90;0.80;;;;;;;;;;5125366;27;20390;-66
2022/01/04 02:41:51;;;;;;;1.17;0.88;;;;;;;;;;5125942;28;20202;-68
2022/01/04 02:44:18;;;;;;;0.95;0.93;;;;;;;;;;5125204;28;20210;-67
2022/01/04 02:46:44;;;;;;;0.73;0.73;;;;;;;;;;5126242;28;20226;-68
2022/01/04 02:49:11;;;;;;;0.80;0.80;;;;;;;;;;5126646;28;20383;-68
2022/01/04 02:51:38;;;;;;;0.80;0.80;;;;;;;;;;5126369;28;20215;-68
2022/01/04 02:54:05;;;;;;;1.10;1.00;;;;;;;;;;5126493;28;20556;-68
2022/01/04 02:56:32;;;;;;;1.75;0.85;;;;;;;;;;5126022;28;20202;-68
2022/01/04 02:59:03;;;;;;;0.90;0.90;;;;;;;;;;5126250;28;20405;-69
2022/01/04 03:01:30;;;;;;;0.77;0.77;;;;;;;;;;5126004;28;20522;-69
2022/01/04 03:03:56;;;;;;;1.05;0.80;;;;;;;;;;5125859;28;20210;-66
2022/01/04 03:06:22;;;;;;;1.08;0.98;;;;;;;;;;5125231;28;20201;-68
2022/01/04 03:08:49;;;;;;;0.95;0.95;;;;;;;;;;5125068;28;20214;-68
2022/01/04 03:11:17;;;;;;;1.10;0.93;;;;;;;;;;5125347;28;20211;-67
2022/01/04 03:13:43;;;;;;;1.00;0.93;;;;;;;;;;5125342;28;20232;-66
2022/01/04 03:16:10;;;;;;;0.80;0.80;;;;;;;;;;5124299;28;20195;-66
2022/01/04 03:19:02;;;;;;;0.65;0.65;;;;;;;;;;5124841;27;20187;-66
2022/01/04 03:21:29;;;;;;;1.20;1.10;;;;;;;;;;5125732;28;20199;-69
2022/01/04 03:23:55;;;;;;;1.75;0.80;;;;;;;;;;5125650;28;20195;-68
2022/01/04 03:26:23;;;;;;;0.82;0.80;;;;;;;;;;5125801;28;20202;-68
2022/01/04 03:28:49;;;;;;;0.80;0.80;;;;;;;;;;5125498;28;20198;-68
2022/01/04 03:31:16;;;;;;;0.90;0.90;;;;;;;;;;5126689;28;20218;-69
2022/01/04 03:33:42;;;;;;;1.95;0.80;;;;;;;;;;5125966;28;20206;-68
2022/01/04 03:36:09;;;;;;;0.70;0.70;;;;;;;;;;5125503;28;20202;-68
2022/01/04 03:38:35;;;;;;;1.05;1.05;;;;;;;;;;5125052;28;20187;-68
2022/01/04 03:41:02;;;;;;;1.00;0.90;;;;;;;;;;5125554;28;20203;-68
2022/01/04 03:43:32;;;;;;;0.90;0.90;;;;;;;;;;5126163;28;20195;-68
2022/01/04 03:45:58;;;;;;;1.67;0.90;;;;;;;;;;5125421;28;20295;-68
2022/01/04 03:48:24;;;;;;;2.00;0.80;;;;;;;;;;5125597;28;20202;-68
2022/01/04 03:50:51;;;;;;;1.23;1.00;;;;;;;;;;5125901;28;20210;-68
2022/01/04 03:53:17;;;;;;;0.90;0.90;;;;;;;;;;5124429;28;20210;-66
2022/01/04 03:55:44;;;;;;;1.05;0.90;;;;;;;;;;5124119;28;20195;-66
2022/01/04 03:58:10;;;;;;;0.95;0.95;;;;;;;;;;5124096;28;20202;-66
2022/01/04 04:00:38;;;;;;;1.67;1.00;;;;;;;;;;5124124;28;20202;-68
2022/01/04 04:03:07;;;;;;;1.02;0.98;;;;;;;;;;5125689;28;20380;-68
2022/01/04 04:05:33;;;;;;;0.75;0.75;;;;;;;;;;5126166;28;20420;-68
2022/01/04 04:08:00;;;;;;;0.93;0.93;;;;;;;;;;5124328;28;20202;-66
2022/01/04 04:10:26;;;;;;;1.77;1.10;;;;;;;;;;5124011;28;20407;-68
2022/01/04 04:12:52;;;;;;;1.15;1.05;;;;;;;;;;5125080;28;20195;-66
2022/01/04 04:15:19;;;;;;;0.93;0.93;;;;;;;;;;5124068;28;20199;-66
2022/01/04 04:17:47;;;;;;;1.45;1.05;;;;;;;;;;5123923;28;20198;-68
2022/01/04 04:20:13;;;;;;;1.63;1.00;;;;;;;;;;5123693;28;20192;-68
2022/01/04 04:22:40;;;;;;;1.27;0.82;;;;;;;;;;5123697;28;20195;-68
2022/01/04 04:25:06;;;;;;;1.42;1.10;;;;;;;;;;5123389;28;20526;-68
2022/01/04 04:27:33;;;;;;;1.10;1.10;;;;;;;;;;5123792;28;20198;-68
2022/01/04 04:29:59;;;;;;;1.65;0.98;;;;;;;;;;5123485;28;20191;-68
2022/01/04 04:32:26;;;;;;;1.05;0.80;;;;;;;;;;5123833;28;20195;-68
2022/01/04 04:34:54;;;;;;;1.48;1.08;;;;;;;;;;5123393;28;20202;-68
2022/01/04 04:37:20;;;;;;;2.22;1.98;;;;;;;;;;5123460;28;20210;-68
2022/01/04 04:39:47;;;;;;;4.82;4.05;;;;;;;;;;5123178;28;20194;-68
2022/01/04 04:42:13;;;;;;;2.92;2.72;;;;;;;;;;5123695;28;20191;-66
2022/01/04 04:44:39;;;;;;;1.33;1.23;;;;;;;;;;5124486;28;20241;-66
2022/01/04 04:47:06;;;;;;;1.00;1.00;;;;;;;;;;5123171;28;20195;-66
2022/01/04 04:49:32;;;;;;;1.67;0.82;;;;;;;;;;5123297;28;20443;-66
2022/01/04 04:52:00;;;;;;;1.95;1.02;;;;;;;;;;5124417;28;20234;-68
2022/01/04 04:54:27;;;;;;;0.75;0.75;;;;;;;;;;5123484;28;20534;-66
2022/01/04 04:56:53;;;;;;;1.02;0.98;;;;;;;;;;5123315;28;20201;-66
2022/01/04 04:59:19;;;;;;;2.25;0.98;;;;;;;;;;5122913;28;20209;-66
2022/01/04 05:01:46;;;;;;;0.82;0.82;;;;;;;;;;5123021;28;20191;-66
2022/01/04 05:04:12;;;;;;;1.10;1.00;;;;;;;;;;5123090;28;20388;-66
2022/01/04 05:06:39;;;;;;;1.00;0.80;;;;;;;;;;5123206;28;20364;-68
2022/01/04 05:09:10;;;;;;;1.23;0.95;;;;;;;;;;5123212;28;20199;-68
2022/01/04 05:11:36;;;;;;;2.50;1.00;;;;;;;;;;5123099;28;20225;-66
2022/01/04 05:14:02;;;;;;;1.00;1.00;;;;;;;;;;5123127;28;20209;-66
2022/01/04 05:16:29;;;;;;;1.20;1.00;;;;;;;;;;5122885;28;20248;-68
2022/01/04 05:18:55;;;;;;;2.20;0.80;;;;;;;;;;5122625;28;20199;-66
2022/01/04 05:21:22;;;;;;;1.35;0.85;;;;;;;;;;5122958;28;20187;-66
2022/01/04 05:23:50;;;;;;;1.15;0.93;;;;;;;;;;5123182;28;20211;-68
2022/01/04 05:26:17;;;;;;;1.17;1.17;;;;;;;;;;5122407;28;20218;-68
2022/01/04 05:28:45;;;;;;;4.50;4.10;;;;;;;;;;5122840;28;20195;-68
2022/01/04 05:31:12;;;;;;;3.70;3.40;;;;;;;;;;5122800;28;20222;-68
2022/01/04 05:33:38;;;;;;;2.35;2.15;;;;;;;;;;5122952;28;20195;-68
2022/01/04 05:36:05;;;;;;;3.58;3.28;;;;;;;;;;5122553;28;20202;-68
2022/01/04 05:38:32;;;;;;;1.25;1.25;;;;;;;;;;5122708;28;20580;-68
2022/01/04 05:40:59;;;;;;;2.00;1.90;;;;;;;;;;5122604;28;20202;-66
2022/01/04 05:43:27;;;;;;;2.00;1.90;;;;;;;;;;5122807;28;20218;-66
2022/01/04 05:45:53;;;;;;;1.25;1.25;;;;;;;;;;5122391;28;20262;-68
2022/01/04 05:48:20;;;;;;;2.50;1.25;;;;;;;;;;5122390;28;20214;-68
2022/01/04 05:50:47;;;;;;;1.27;1.27;;;;;;;;;;5122445;28;20583;-68
2022/01/04 05:53:13;;;;;;;2.15;1.40;;;;;;;;;;5122700;28;20386;-68
2022/01/04 05:55:40;;;;;;;2.40;1.38;;;;;;;;;;5122240;28;20195;-68
2022/01/04 05:58:06;;;;;;;2.20;1.05;;;;;;;;;;5122346;28;20201;-68
2022/01/04 06:00:34;;;;;;;1.48;1.20;;;;;;;;;;5124287;28;20191;-68
2022/01/04 06:03:01;;;;;;;4.32;2.10;;;;;;;;;;5126650;28;20195;-68
2022/01/04 06:05:27;;;;;;;1.45;1.35;;;;;;;;;;5126513;28;20266;-68
2022/01/04 06:07:53;;;;;;;2.05;1.58;;;;;;;;;;5126400;28;20191;-68
2022/01/04 06:10:20;;;;;;;3.35;2.42;;;;;;;;;;5126258;28;20195;-68
2022/01/04 06:15:31;;;;;;;1.38;1.38;;;;;;;;;;5127195;28;20233;-66
2022/01/04 06:17:58;;;;;;;1.73;1.42;;;;;;;;;;5126121;27;20195;-68
2022/01/04 06:20:27;;;;;;;2.28;1.20;;;;;;;;;;5126074;28;20198;-68
2022/01/04 06:22:54;;;;;;;1.33;1.10;;;;;;;;;;5126145;28;20546;-66
2022/01/04 06:25:21;;;;;;;1.33;1.33;;;;;;;;;;5126083;28;20223;-67
2022/01/04 06:27:49;;;;;;;1.83;0.93;;;;;;;;;;5126402;27;20196;-69
2022/01/04 06:30:16;;;;;;;1.70;1.10;;;;;;;;;;5128950;28;20218;-69
2022/01/04 06:32:42;;;;;;;1.33;1.23;;;;;;;;;;5128830;27;20503;-68
2022/01/04 06:35:10;;;;;;;1.48;1.10;;;;;;;;;;5125598;28;20195;-65
2022/01/04 06:37:37;;;;;;;2.10;2.00;;;;;;;;;;5125643;28;20195;-66
2022/01/04 06:40:03;;;;;;;1.23;1.23;;;;;;;;;;5125928;27;20199;-66
2022/01/04 06:42:35;;;;;;;1.00;1.00;;;;;;;;;;5126054;28;20199;-66
2022/01/04 06:45:02;;;;;;;0.80;0.80;;;;;;;;;;5126159;28;20215;-68
2022/01/04 06:47:28;;;;;;;2.28;1.08;;;;;;;;;;5128839;28;20195;-68
2022/01/04 06:49:54;;;;;;;1.00;1.00;;;;;;;;;;5128627;28;20371;-68
2022/01/04 06:52:22;;;;;;;1.20;1.10;;;;;;;;;;5127995;28;20220;-68
2022/01/04 06:54:49;;;;;;;0.70;0.70;;;;;;;;;;5127054;28;20194;-69
2022/01/04 06:57:16;;;;;;;1.40;1.00;;;;;;;;;;5125613;28;20240;-67
2022/01/04 06:59:42;;;;;;;1.95;0.80;;;;;;;;;;5125182;28;20293;-67
2022/01/04 07:02:10;;;;;;;0.82;0.80;;;;;;;;;;5125722;28;20198;-68
2022/01/04 07:04:36;;;;;;;1.38;0.93;;;;;;;;;;5125346;28;20195;-67
2022/01/04 07:07:03;;;;;;;1.25;1.25;;;;;;;;;;5125423;28;20232;-68
2022/01/04 07:09:30;;;;;;;0.70;0.70;;;;;;;;;;5125373;28;20190;-67
2022/01/04 07:11:57;;;;;;;0.88;0.80;;;;;;;;;;5124104;28;20226;-67
2022/01/04 07:14:24;;;;;;;3.20;2.47;;;;;;;;;;5125176;28;20426;-67
2022/01/04 07:16:50;;;;;;;2.47;1.35;;;;;;;;;;5125440;28;20202;-68
2022/01/04 07:19:17;;;;;;;0.73;0.65;;;;;;;;;;5124730;28;20195;-67
2022/01/04 07:21:44;;;;;;;1.85;1.30;;;;;;;;;;5125045;28;20194;-67
2022/01/04 07:24:10;;;;;;;4.30;3.90;;;;;;;;;;5125154;28;20202;-67
2022/01/04 07:26:38;;;;;;;1.95;1.85;;;;;;;;;;5124785;28;20202;-67
2022/01/04 07:29:04;;;;;;;2.58;1.60;;;;;;;;;;5124611;28;20195;-67
2022/01/04 07:31:31;;;;;;;1.48;0.80;;;;;;;;;;5124386;28;20248;-67
2022/01/04 07:33:58;;;;;;;1.75;1.20;;;;;;;;;;5124802;28;20203;-67
2022/01/04 07:36:25;;;;;;;1.25;1.10;;;;;;;;;;5124676;28;20195;-67
2022/01/04 07:38:52;;;;;;;1.30;1.25;;;;;;;;;;5124830;28;20262;-67
2022/01/04 07:41:18;;;;;;;4.78;1.70;;;;;;;;;;5124474;28;20378;-67
2022/01/04 07:43:46;;;;;;;3.15;1.10;;;;;;;;;;5124571;28;20206;-67
2022/01/04 07:46:12;;;;;;;0.60;0.60;;;;;;;;;;5123906;28;20286;-67
2022/01/04 07:48:39;;;;;;;2.15;1.00;;;;;;;;;;5123472;28;20203;-67
2022/01/04 07:51:05;;;;;;;2.33;1.00;;;;;;;;;;5123724;28;20202;-57
2022/01/04 07:53:32;;;;;;;1.45;1.20;;;;;;;;;;5124461;28;20195;-57
2022/01/04 07:55:59;;;;;;;1.00;1.00;;;;;;;;;;5116486;28;20203;-55
2022/01/04 07:58:26;;;;;;;0.93;0.93;;;;;;;;;;5113982;27;20423;-56
2022/01/04 08:00:54;;;;;;;1.67;1.00;;;;;;;;;;5111703;27;20225;-56
2022/01/04 08:03:20;;;;;;;0.90;0.90;;;;;;;;;;5122253;27;20226;-54
2022/01/04 08:05:47;;;;;;;0.50;0.50;;;;;;;;;;5116825;28;20419;-56
2022/01/04 08:08:14;;;;;;;1.63;1.13;;;;;;;;;;5117118;28;20211;-55
2022/01/04 08:10:40;;;;;;;0.80;0.80;;;;;;;;;;5117602;28;20550;-54
2022/01/04 08:13:07;;;;;;;3.88;2.03;;;;;;;;;;5114372;28;20234;-54
2022/01/04 08:15:33;;;;;;;2.25;1.00;;;;;;;;;;5119369;27;20429;-56
2022/01/04 08:18:01;;;;;;;1.25;0.77;;;;;;;;;;5117362;28;20211;-56
2022/01/04 08:20:27;;;;;;;8.38;2.95;;;;;;;;;;5117641;28;20380;-55
2022/01/04 08:22:54;;;;;;;6.85;4.00;;;;;;;;;;5116857;28;20207;-55
2022/01/04 08:25:20;;;;;;;0.70;0.70;;;;;;;;;;5116493;28;20486;-58
2022/01/04 08:27:47;;;;;;;0.80;0.80;;;;;;;;;;5120394;28;20231;-60
2022/01/04 08:30:14;;;;;;;28.48;13.00;;;;;;;;;;5122535;28;20206;-59
2022/01/04 08:32:41;;;;;;;3.78;2.97;;;;;;;;;;5123056;28;20234;-59
2022/01/04 08:35:09;;;;;;;1.92;0.93;;;;;;;;;;5112603;28;20208;-60
2022/01/04 08:37:36;;;;;;;2.63;2.10;;;;;;;;;;5108519;28;20226;-59
2022/01/04 08:40:04;;;;;;;0.70;0.70;;;;;;;;;;5122542;28;20207;-60
2022/01/04 08:42:31;;;;;;;2.75;1.80;;;;;;;;;;5123397;28;20274;-60
2022/01/04 08:44:57;;;;;;;6.13;2.10;;;;;;;;;;5121862;27;20453;-60
2022/01/04 08:47:25;;;;;;;2.15;1.90;;;;;;;;;;5104505;28;20234;-60
2022/01/04 08:49:52;;;;;;;2.22;1.90;;;;;;;;;;5120412;28;20279;-61
2022/01/04 08:52:20;;;;;;;2.33;1.58;;;;;;;;;;5120832;27;20239;-61
2022/01/04 08:54:47;;;;;;;3.00;0.85;;;;;;;;;;5119271;28;20218;-61
2022/01/04 08:57:13;;;;;;;1.65;0.85;;;;;;;;;;5119540;28;20202;-61
2022/01/04 08:59:40;;;;;;;2.20;0.93;;;;;;;;;;5119293;28;20222;-61
2022/01/04 09:02:06;;;;;;;1.50;0.93;;;;;;;;;;5116689;28;20569;-59
2022/01/04 09:04:32;;;;;;;1.75;0.70;;;;;;;;;;5113909;28;20203;-56
2022/01/04 09:07:00;;;;;;;2.33;0.98;;;;;;;;;;5115269;28;20207;-54
2022/01/04 09:09:28;;;;;;;1.08;0.82;;;;;;;;;;5117141;28;20261;-56
2022/01/04 09:11:55;;;;;;;1.73;1.00;;;;;;;;;;5116384;28;20223;-55
2022/01/04 09:14:29;;;;;;;1.20;1.10;;;;;;;;;;5117177;28;20207;-57
2022/01/04 09:19:39;;;;;;;1.08;1.08;;;;;;;;;;5117149;28;20249;-57
2022/01/04 09:22:06;;;;;;;0.90;0.90;;;;;;;;;;5116992;28;20195;-55
2022/01/04 09:24:34;;;;;;;1.00;1.00;;;;;;;;;;5117319;28;20538;-56
2022/01/04 09:27:05;;;;;;;2.42;1.10;;;;;;;;;;5115170;28;20551;-55
2022/01/04 09:29:32;;;;;;;2.78;1.42;;;;;;;;;;5116128;28;20199;-56
2022/01/04 09:32:00;;;;;;;3.20;1.40;;;;;;;;;;5116868;28;20350;-55
2022/01/04 09:34:27;;;;;;;1.52;1.00;;;;;;;;;;5116597;28;20242;-58
2022/01/04 09:36:56;;;;;;;2.30;1.27;;;;;;;;;;5115725;28;20706;-56
2022/01/04 09:39:23;;;;;;;2.40;1.25;;;;;;;;;;5116684;28;20248;-57
2022/01/04 09:41:52;;;;;;;1.25;1.15;;;;;;;;;;5116694;28;20226;-57
2022/01/04 09:44:22;;;;;;;4.50;2.35;;;;;;;;;;5124160;27;20478;-60
2022/01/04 09:46:48;;;;;;;2.03;1.77;;;;;;;;;;5126200;28;20210;-56
2022/01/04 09:49:16;;;;;;;1.30;1.20;;;;;;;;;;5116553;28;20278;-58
2022/01/04 09:51:45;;;;;;;1.70;1.60;;;;;;;;;;5129940;28;20212;-56
2022/01/04 09:54:11;;;;;;;3.97;1.30;;;;;;;;;;5118280;28;20210;-58
2022/01/04 09:56:39;;;;;;;1.38;1.10;;;;;;;;;;5119313;28;20210;-56
2022/01/04 09:59:09;;;;;;;2.05;1.83;;;;;;;;;;5116531;28;20257;-56
2022/01/04 10:01:37;;;;;;;2.55;2.33;;;;;;;;;;5115622;28;20514;-56
2022/01/04 10:04:04;;;;;;;1.33;1.00;;;;;;;;;;5116195;28;20199;-58
2022/01/04 10:06:30;;;;;;;1.95;1.50;;;;;;;;;;5116883;28;20214;-58
2022/01/04 10:08:59;;;;;;;2.05;1.00;;;;;;;;;;5115750;28;20473;-55
2022/01/04 10:11:30;;;;;;;0.98;0.98;;;;;;;;;;5105127;28;20276;-56
2022/01/04 10:13:57;;;;;;;2.05;0.82;;;;;;;;;;5098226;28;20234;-56
2022/01/04 10:16:25;;;;;;;3.75;1.00;;;;;;;;;;5113662;28;20500;-57
2022/01/04 10:18:53;;;;;;;2.60;0.90;;;;;;;;;;5115293;28;20442;-55
2022/01/04 10:21:20;;;;;;;0.90;0.90;;;;;;;;;;5116730;28;20278;-56
2022/01/04 10:23:48;;;;;;;2.60;0.95;;;;;;;;;;5114796;28;20204;-55
2022/01/04 10:26:14;;;;;;;1.48;1.00;;;;;;;;;;5113634;28;20458;-54
2022/01/04 10:28:43;;;;;;;1.08;0.93;;;;;;;;;;5115181;28;20400;-54
2022/01/04 10:31:10;;;;;;;1.95;0.80;;;;;;;;;;5116795;28;20510;-55
2022/01/04 10:33:40;;;;;;;0.80;0.80;;;;;;;;;;5115954;28;20246;-55
2022/01/04 10:36:11;;;;;;;0.98;0.90;;;;;;;;;;5116522;28;20203;-58
2022/01/04 10:38:39;;;;;;;0.98;0.90;;;;;;;;;;5115355;28;20515;-59
2022/01/04 10:41:06;;;;;;;1.77;0.88;;;;;;;;;;5116671;28;20207;-60
2022/01/04 10:43:33;;;;;;;2.75;0.90;;;;;;;;;;5116209;28;20208;-59
2022/01/04 10:46:01;;;;;;;1.83;0.75;;;;;;;;;;5116535;28;20418;-58
2022/01/04 10:48:28;;;;;;;1.75;1.00;;;;;;;;;;5119012;28;20558;-61
2022/01/04 10:50:58;;;;;;;1.27;1.05;;;;;;;;;;5124453;27;20207;-62
2022/01/04 10:53:26;;;;;;;0.90;0.90;;;;;;;;;;5139251;27;20226;-61
2022/01/04 10:55:55;;;;;;;1.40;1.30;;;;;;;;;;5119631;28;20431;-61
2022/01/04 10:58:23;;;;;;;0.95;0.93;;;;;;;;;;5119395;28;20215;-60
2022/01/04 11:00:51;;;;;;;2.15;1.13;;;;;;;;;;5119349;28;20214;-61
2022/01/04 11:03:22;;;;;;;2.58;1.13;;;;;;;;;;5122619;28;20554;-62
2022/01/04 11:05:52;;;;;;;2.88;0.82;;;;;;;;;;5121779;28;20393;-62
2022/01/04 11:08:20;;;;;;;0.93;0.93;;;;;;;;;;5119749;28;20518;-58
2022/01/04 11:10:49;;;;;;;1.25;1.15;;;;;;;;;;5118829;28;20256;-58
2022/01/04 11:13:15;;;;;;;2.38;0.95;;;;;;;;;;5119624;28;20554;-57
2022/01/04 11:15:42;;;;;;;1.40;1.20;;;;;;;;;;5119403;28;20203;-56
2022/01/04 11:18:11;;;;;;;1.05;1.00;;;;;;;;;;5119227;28;20209;-56
2022/01/04 11:20:40;;;;;;;2.63;1.00;;;;;;;;;;5118199;28;20239;-55
2022/01/04 11:23:07;;;;;;;1.58;1.20;;;;;;;;;;5119341;28;20248;-57
2022/01/04 11:25:34;;;;;;;1.00;1.00;;;;;;;;;;5119187;28;20207;-57
2022/01/04 11:28:01;;;;;;;2.05;1.05;;;;;;;;;;5118608;28;20260;-58
2022/01/04 11:30:31;;;;;;;2.80;1.00;;;;;;;;;;5119223;28;20252;-55
2022/01/04 11:33:00;;;;;;;1.35;0.70;;;;;;;;;;5119177;28;20569;-56
2022/01/04 11:35:26;;;;;;;1.95;1.10;;;;;;;;;;5119359;28;20203;-57
2022/01/04 11:37:54;;;;;;;2.45;1.10;;;;;;;;;;5118369;28;20203;-57
2022/01/04 11:40:25;;;;;;;2.30;0.90;;;;;;;;;;5118939;28;20207;-58
2022/01/04 11:42:53;;;;;;;1.00;1.00;;;;;;;;;;5118542;28;20522;-54
2022/01/04 11:45:34;;;;;;;1.30;0.93;;;;;;;;;;5117868;28;20572;-56
2022/01/04 11:48:01;;;;;;;0.90;0.90;;;;;;;;;;5098050;28;20470;-56
2022/01/04 11:50:36;;;;;;;2.40;1.02;;;;;;;;;;5120755;27;20209;-58
2022/01/04 11:53:12;;;;;;;2.42;1.15;;;;;;;;;;5124958;27;20232;-58
2022/01/04 11:55:39;;;;;;;0.93;0.93;;;;;;;;;;5118512;28;20207;-55
2022/01/04 11:58:09;;;;;;;2.30;1.20;;;;;;;;;;5117404;28;20214;-57
2022/01/04 12:00:37;;;;;;;3.92;1.10;;;;;;;;;;5118593;27;20457;-58
2022/01/04 12:03:10;;;;;;;1.30;1.20;;;;;;;;;;5117281;28;20208;-56
2022/01/04 12:05:39;;;;;;;1.30;1.00;;;;;;;;;;5118369;28;20207;-57
2022/01/04 12:08:15;;;;;;;1.70;1.25;;;;;;;;;;5116200;28;20206;-58
2022/01/04 12:10:42;;;;;;;1.25;1.17;;;;;;;;;;5118395;28;20236;-57
2022/01/04 12:13:11;;;;;;;1.35;1.10;;;;;;;;;;5122799;27;20512;-57
2022/01/04 12:15:51;;;;;;;2.72;1.23;;;;;;;;;;5118208;28;20542;-55
2022/01/04 12:18:36;;;;;;;1.35;1.20;;;;;;;;;;5118017;28;20198;-55
2022/01/04 12:21:04;;;;;;;2.58;1.10;;;;;;;;;;5118032;28;20207;-57
2022/01/04 12:23:46;;;;;;;2.38;1.50;;;;;;;;;;5117442;28;20563;-55
2022/01/04 12:26:24;;;;;;;1.10;1.10;;;;;;;;;;5117883;28;20421;-55
2022/01/04 12:29:09;;;;;;;2.40;1.73;;;;;;;;;;5117654;28;20207;-55
2022/01/04 12:31:45;;;;;;;1.80;1.05;;;;;;;;;;5117996;28;20417;-57
2022/01/04 12:34:26;;;;;;;1.67;1.15;;;;;;;;;;5117364;28;20275;-56
2022/01/04 12:36:52;;;;;;;1.25;1.10;;;;;;;;;;5117986;28;20215;-56
2022/01/04 12:39:20;;;;;;;1.38;1.20;;;;;;;;;;5116895;28;20199;-55
2022/01/04 12:41:47;;;;;;;1.88;1.05;;;;;;;;;;5118402;28;20677;-55
2022/01/04 12:44:15;;;;;;;1.75;1.48;;;;;;;;;;5117399;28;20221;-55
2022/01/04 12:46:46;;;;;;;1.70;1.17;;;;;;;;;;5117476;28;20248;-54
2022/01/04 12:49:13;;;;;;;4.10;1.17;;;;;;;;;;5117518;28;20511;-56
2022/01/04 12:51:44;;;;;;;1.95;1.40;;;;;;;;;;5131573;27;20206;-55
2022/01/04 12:54:11;;;;;;;1.60;1.50;;;;;;;;;;5138449;27;20213;-54
2022/01/04 12:56:40;;;;;;;2.88;1.30;;;;;;;;;;5117243;27;20540;-57
2022/01/04 12:59:07;;;;;;;1.65;1.42;;;;;;;;;;5116965;28;20215;-55
2022/01/04 13:01:33;;;;;;;1.77;1.25;;;;;;;;;;5136267;27;20203;-54
2022/01/04 13:04:02;;;;;;;3.13;1.67;;;;;;;;;;5138710;27;20498;-55
2022/01/04 13:06:32;;;;;;;1.40;1.05;;;;;;;;;;5121349;27;20214;-56
2022/01/04 13:09:00;;;;;;;1.58;1.45;;;;;;;;;;5116481;28;20207;-57
2022/01/04 13:11:26;;;;;;;2.25;1.10;;;;;;;;;;5116736;28;20227;-57
2022/01/04 13:13:56;;;;;;;2.45;1.50;;;;;;;;;;5117558;28;20573;-57
2022/01/04 13:16:23;;;;;;;4.45;1.48;;;;;;;;;;5116161;28;20557;-55
2022/01/04 13:18:49;;;;;;;1.50;1.40;;;;;;;;;;5116570;28;20240;-55
2022/01/04 13:21:26;;;;;;;2.97;1.40;;;;;;;;;;5117607;28;20405;-57
2022/01/04 13:23:53;;;;;;;3.78;1.33;;;;;;;;;;5117315;28;20508;-56
2022/01/04 13:26:24;;;;;;;1.75;1.65;;;;;;;;;;5115812;28;20213;-56
2022/01/04 13:28:54;;;;;;;2.83;1.40;;;;;;;;;;5116497;28;20213;-57
2022/01/04 13:31:20;;;;;;;1.52;1.42;;;;;;;;;;5117258;28;20542;-56
2022/01/04 13:33:47;;;;;;;4.57;1.80;;;;;;;;;;5117089;28;20550;-56
2022/01/04 13:36:13;;;;;;;2.22;1.35;;;;;;;;;;5117652;28;20498;-54
2022/01/04 13:38:41;;;;;;;2.40;1.60;;;;;;;;;;5115470;28;20221;-55
2022/01/04 13:41:08;;;;;;;2.55;1.30;;;;;;;;;;5116939;28;20278;-55
2022/01/04 13:43:38;;;;;;;1.30;1.17;;;;;;;;;;5117127;28;20203;-57
2022/01/04 13:46:07;;;;;;;4.20;1.33;;;;;;;;;;5116776;28;20542;-56
2022/01/04 13:48:35;;;;;;;2.53;1.48;;;;;;;;;;5116188;28;20244;-56
2022/01/04 13:51:04;;;;;;;3.28;1.67;;;;;;;;;;5124840;28;20461;-56
2022/01/04 13:53:35;;;;;;;1.35;1.25;;;;;;;;;;5124309;28;20223;-56
2022/01/04 13:56:06;;;;;;;1.13;1.13;;;;;;;;;;5116824;28;20575;-56
2022/01/04 13:58:37;;;;;;;1.83;1.30;;;;;;;;;;5115950;28;20218;-56
2022/01/04 14:01:20;;;;;;;1.58;1.40;;;;;;;;;;5116895;28;20211;-55
2022/01/04 14:03:48;;;;;;;2.25;1.50;;;;;;;;;;5116736;28;20195;-57
2022/01/04 14:06:32;;;;;;;2.97;1.58;;;;;;;;;;5117265;28;20207;-55
2022/01/04 14:08:59;;;;;;;2.28;1.50;;;;;;;;;;5115743;28;20483;-54
2022/01/04 14:11:28;;;;;;;1.63;1.52;;;;;;;;;;5116996;28;20418;-54
2022/01/04 14:13:55;;;;;;;4.25;1.33;;;;;;;;;;5116315;28;20480;-56
2022/01/04 14:16:22;;;;;;;4.22;1.40;;;;;;;;;;5116722;28;20207;-56
2022/01/04 14:19:02;;;;;;;3.50;1.52;;;;;;;;;;5115749;28;20869;-55
2022/01/04 14:21:32;;;;;;;2.55;1.50;;;;;;;;;;5118073;28;20206;-56
2022/01/04 14:23:58;;;;;;;1.88;1.67;;;;;;;;;;5120883;28;20207;-55
2022/01/04 14:26:25;;;;;;;4.13;1.20;;;;;;;;;;5120243;28;20518;-55
2022/01/04 14:28:52;;;;;;;0.82;0.82;;;;;;;;;;5119301;28;20207;-55
2022/01/04 14:31:19;;;;;;;0.80;0.80;;;;;;;;;;5120432;28;20271;-54
2022/01/04 14:33:45;;;;;;;1.42;0.52;;;;;;;;;;5120365;28;20253;-55
2022/01/04 14:36:12;;;;;;;0.45;0.45;;;;;;;;;;5120249;28;20533;-56
2022/01/04 14:38:38;;;;;;;2.53;0.60;;;;;;;;;;5120121;28;20378;-56
2022/01/04 14:41:05;;;;;;;0.47;0.47;;;;;;;;;;5119710;28;20284;-56
2022/01/04 14:43:31;;;;;;;1.38;0.80;;;;;;;;;;5119510;28;20227;-55
2022/01/04 14:45:59;;;;;;;0.80;0.80;;;;;;;;;;5120332;28;20551;-55
2022/01/04 14:48:25;;;;;;;0.75;0.68;;;;;;;;;;5119623;28;20234;-57
2022/01/04 14:50:52;;;;;;;0.85;0.85;;;;;;;;;;5125585;27;20195;-55
2022/01/04 14:53:21;;;;;;;1.65;0.95;;;;;;;;;;5134755;27;20209;-56
2022/01/04 14:55:47;;;;;;;2.33;1.42;;;;;;;;;;5119722;28;20278;-56